KAST/AST METAR and TAF weather

Enter ICAO airport designator
Station Type Date Time Source
KAST METAR 2020/04/06 08:55 UTC NOAA

KAST 060855Z AUTO 14003KT 10SM CLR 04/03 A2974 RMK AO2 SLP069 T00440033 51019 $


Station Type Date Time Source
KAST Decoded METAR 2020/04/06 08:55 UTC NOAA

PORT OF ASTORIA AIRPORT, OR, United States (KAST) 46-09N 123-53W 3M
Apr 06, 2020 - 04:55 AM EDT / 2020.04.06 0855 UTC
Wind: from the SE (140 degrees) at 3 MPH (3 KT):0
Visibility: 10 mile(s):0
Sky conditions: clear
Temperature: 39.9 F (4.4 C)
Dew Point: 37.9 F (3.3 C)
Relative Humidity: 92%
Pressure (altimeter): 29.74 in. Hg (1007 hPa)
Pressure tendency: 0.06 inches (1.9 hPa) higher than three hours ago
ob: KAST 060855Z AUTO 14003KT 10SM CLR 04/03 A2974 RMK AO2 SLP069 T00440033 51019
cycle: 9

Station Type Date Time Source
KAST TAF 2020/04/06 06:34 UTC NOAA

TAF KAST 060532Z 0606/0706 33008KT P6SM FEW025 BKN250
FM061600 31007KT P6SM OVC050
FM061900 31010G17KT P6SM BKN250

Example: see airport list